createdAt,value
2023-03-26T00:01:24.933Z,98982.19
2023-03-26T00:03:55.181Z,98983.84
2023-03-26T00:06:25.353Z,98916.50
2023-03-26T00:08:54.654Z,98985.66
2023-03-26T00:11:24.928Z,98989.19
2023-03-26T00:13:53.889Z,98984.84
2023-03-26T00:16:23.810Z,98912.84
2023-03-26T00:18:53.587Z,98981.16
2023-03-26T00:21:26.326Z,98983.16
2023-03-26T00:23:55.265Z,98991.19
2023-03-26T00:26:24.131Z,98984.84
2023-03-26T00:28:53.164Z,98986.50
2023-03-26T00:31:21.519Z,98983.16
2023-03-26T00:33:55.683Z,98873.84
2023-03-26T00:36:26.929Z,98990.22
2023-03-26T00:38:56.173Z,98980.50
2023-03-26T00:41:27.165Z,98988.53
2023-03-26T00:43:57.875Z,98990.56
2023-03-26T00:46:27.472Z,98993.88
2023-03-26T00:49:03.858Z,98991.19
2023-03-26T00:51:33.611Z,98996.53
2023-03-26T00:54:01.684Z,99005.41
2023-03-26T00:56:29.796Z,99001.25
2023-03-26T00:58:58.022Z,99007.94
2023-03-26T01:01:29.165Z,99013.28
2023-03-26T01:04:18.817Z,99009.94
2023-03-26T01:06:47.090Z,98923.91
2023-03-26T01:09:17.714Z,98844.88
2023-03-26T01:11:46.442Z,99016.97
2023-03-26T01:14:18.419Z,99006.28
2023-03-26T01:16:52.299Z,99001.25
2023-03-26T01:19:26.856Z,99006.63
2023-03-26T01:21:55.062Z,99016.97
2023-03-26T01:24:24.483Z,98940.97
2023-03-26T01:27:19.366Z,99020.63
2023-03-26T01:29:54.285Z,99014.47
2023-03-26T01:32:53.145Z,99015.28
2023-03-26T01:35:30.562Z,99015.28
2023-03-26T01:38:11.092Z,99018.97
2023-03-26T01:40:47.197Z,99002.91
2023-03-26T01:43:26.288Z,99006.63
2023-03-26T01:45:55.445Z,98998.59
2023-03-26T01:48:32.054Z,99006.63
2023-03-26T01:51:00.144Z,99011.13
2023-03-26T01:53:28.665Z,99014.66
2023-03-26T01:56:06.537Z,99011.97
2023-03-26T01:58:40.700Z,99004.47
2023-03-26T02:01:24.556Z,99018.13
2023-03-26T02:04:00.308Z,99015.63
2023-03-26T02:06:37.860Z,98928.91
2023-03-26T02:09:09.206Z,99019.81
2023-03-26T02:11:41.809Z,99018.13
2023-03-26T02:14:10.912Z,99017.16
2023-03-26T02:16:38.990Z,99017.31
2023-03-26T02:19:16.110Z,99013.63
2023-03-26T02:21:44.299Z,99009.94
2023-03-26T02:24:12.346Z,99011.97
2023-03-26T02:26:41.963Z,99012.59
2023-03-26T02:29:10.209Z,99009.94
2023-03-26T02:31:38.476Z,99001.91
2023-03-26T02:34:06.616Z,99000.91
2023-03-26T02:36:36.248Z,99005.59
2023-03-26T02:39:04.708Z,99009.94
2023-03-26T02:41:32.773Z,99008.28
2023-03-26T02:44:02.425Z,99009.94
2023-03-26T02:46:30.604Z,99014.66
2023-03-26T02:48:58.937Z,99010.94
2023-03-26T02:51:27.698Z,99018.97
2023-03-26T02:53:55.958Z,99024.34
2023-03-26T02:56:24.063Z,98995.63
2023-03-26T02:58:52.237Z,99012.31
2023-03-26T03:01:22.962Z,99022.50
2023-03-26T03:03:51.152Z,99022.69
2023-03-26T03:06:19.628Z,99027.00
2023-03-26T03:08:47.755Z,99024.34
2023-03-26T03:11:17.766Z,99036.22
2023-03-26T03:13:46.388Z,98931.63
2023-03-26T03:16:14.630Z,99020.63
2023-03-26T03:18:44.182Z,99022.31
2023-03-26T03:21:12.304Z,99023.31
2023-03-26T03:23:40.687Z,99035.88
2023-03-26T03:26:14.410Z,99040.41
2023-03-26T03:28:42.555Z,99028.03
2023-03-26T03:31:10.672Z,99035.03
2023-03-26T03:33:38.790Z,99029.69
2023-03-26T03:36:20.504Z,99023.50
2023-03-26T03:38:50.996Z,99028.03
2023-03-26T03:41:19.470Z,99024.69
2023-03-26T03:43:47.787Z,98908.97
2023-03-26T03:46:15.859Z,99038.72
2023-03-26T03:48:48.354Z,99038.72
2023-03-26T03:51:18.381Z,99042.06
2023-03-26T03:53:47.490Z,99040.41
2023-03-26T03:56:19.333Z,99046.75
2023-03-26T03:58:47.598Z,99045.75
2023-03-26T04:01:17.013Z,99039.53
2023-03-26T04:03:46.960Z,99053.78
2023-03-26T04:06:19.114Z,99053.09
2023-03-26T04:08:48.753Z,99054.78
2023-03-26T04:11:17.048Z,99058.47
2023-03-26T04:13:45.600Z,99060.97
2023-03-26T04:16:13.671Z,99061.81
2023-03-26T04:18:42.161Z,99060.16
2023-03-26T04:21:12.544Z,99067.50
2023-03-26T04:23:42.485Z,99063.81
2023-03-26T04:26:17.279Z,99067.16
2023-03-26T04:28:50.064Z,99072.50
2023-03-26T04:31:24.232Z,99064.66
2023-03-26T04:33:55.377Z,99075.34
2023-03-26T04:36:28.519Z,99079.06
2023-03-26T04:38:58.486Z,99078.22
2023-03-26T04:41:28.103Z,99087.25
2023-03-26T04:43:57.155Z,99095.13
2023-03-26T04:46:25.431Z,99083.56
2023-03-26T04:48:54.819Z,99089.75
2023-03-26T04:51:27.235Z,99089.75
2023-03-26T04:53:57.899Z,99093.25
2023-03-26T04:56:37.627Z,99010.81
2023-03-26T04:59:06.229Z,99068.03
2023-03-26T05:01:37.931Z,99099.28
2023-03-26T05:04:06.444Z,99080.25
2023-03-26T05:06:35.179Z,99091.25
2023-03-26T05:09:03.398Z,99083.06
2023-03-26T05:11:32.884Z,99089.41
2023-03-26T05:14:01.073Z,99088.56
2023-03-26T05:16:30.284Z,99092.59
2023-03-26T05:18:58.396Z,99101.28
2023-03-26T05:21:26.504Z,99112.84
2023-03-26T05:23:54.543Z,99102.13
2023-03-26T05:26:22.856Z,99034.22
2023-03-26T05:28:52.777Z,99106.63
2023-03-26T05:31:22.369Z,99104.97
2023-03-26T05:33:51.127Z,99015.81
2023-03-26T05:36:19.368Z,99103.97
2023-03-26T05:38:49.755Z,99105.66
2023-03-26T05:41:18.381Z,99102.97
2023-03-26T05:43:47.880Z,99106.63
2023-03-26T05:46:18.214Z,99109.13
2023-03-26T05:48:46.727Z,99120.69
2023-03-26T05:51:15.753Z,99121.72
2023-03-26T05:53:44.072Z,99128.91
2023-03-26T05:56:12.287Z,98951.13
2023-03-26T05:58:42.135Z,99128.03
2023-03-26T06:01:17.091Z,99128.03
2023-03-26T06:03:47.292Z,98956.47
2023-03-26T06:06:17.415Z,99137.09
2023-03-26T06:08:46.969Z,99137.09
2023-03-26T06:11:15.162Z,99138.75
2023-03-26T06:13:44.177Z,99151.16
2023-03-26T06:16:27.058Z,99147.81
2023-03-26T06:18:57.957Z,99154.81
2023-03-26T06:21:26.675Z,99155.81
2023-03-26T06:23:55.438Z,99158.50
2023-03-26T06:26:23.793Z,99174.56
2023-03-26T06:28:51.935Z,99179.91
2023-03-26T06:31:20.383Z,99183.44
2023-03-26T06:33:48.914Z,99181.56
2023-03-26T06:36:18.538Z,99181.56
2023-03-26T06:38:46.744Z,99087.34
2023-03-26T06:41:15.097Z,99034.94
2023-03-26T06:43:43.222Z,99065.69
2023-03-26T06:46:12.301Z,99204.00
2023-03-26T06:48:42.252Z,99207.53
2023-03-26T06:51:10.919Z,99126.78
2023-03-26T06:53:40.400Z,99211.19
2023-03-26T06:56:09.805Z,99212.38
2023-03-26T06:58:37.930Z,99217.72
2023-03-26T07:01:06.474Z,99222.75
2023-03-26T07:03:34.664Z,99223.09
2023-03-26T07:06:02.798Z,99219.72
2023-03-26T07:08:32.073Z,99232.59
2023-03-26T07:11:01.636Z,99229.13
2023-03-26T07:13:29.724Z,99223.75
2023-03-26T07:15:57.891Z,99226.44
2023-03-26T07:18:25.982Z,99063.66
2023-03-26T07:20:55.668Z,99218.75
2023-03-26T07:23:24.308Z,99237.16
2023-03-26T07:25:53.065Z,99238.81
2023-03-26T07:28:31.562Z,99232.59
2023-03-26T07:31:12.152Z,99238.81
2023-03-26T07:33:47.581Z,99238.97
2023-03-26T07:36:24.552Z,99241.66
2023-03-26T07:39:14.589Z,99093.75
2023-03-26T07:41:48.330Z,99250.69
2023-03-26T07:44:31.164Z,99252.53
2023-03-26T07:47:02.553Z,99256.88
2023-03-26T07:49:31.603Z,99261.22
2023-03-26T07:52:01.752Z,99166.59
2023-03-26T07:54:30.575Z,99252.34
2023-03-26T07:57:04.446Z,99240.81
2023-03-26T07:59:39.725Z,99121.31
2023-03-26T08:02:37.066Z,99238.28
2023-03-26T08:05:21.835Z,99239.13
2023-03-26T08:08:05.745Z,99238.28
2023-03-26T08:10:39.493Z,99248.53
2023-03-26T08:13:22.165Z,99253.53
2023-03-26T08:15:58.269Z,99253.53
2023-03-26T08:18:41.407Z,99258.88
2023-03-26T08:21:17.198Z,99257.19
2023-03-26T08:23:58.997Z,99255.19
2023-03-26T08:26:36.365Z,99258.88
2023-03-26T08:29:15.675Z,99264.25
2023-03-26T08:31:48.241Z,99259.69
2023-03-26T08:34:16.944Z,99271.25
2023-03-26T08:36:45.454Z,99100.09
2023-03-26T08:39:14.323Z,99269.94
2023-03-26T08:42:25.209Z,99285.66
2023-03-26T08:45:16.741Z,99293.69
2023-03-26T08:48:32.587Z,99293.00
2023-03-26T08:51:41.661Z,99298.34
2023-03-26T08:54:36.813Z,99293.00
2023-03-26T08:57:46.904Z,99302.06
2023-03-26T09:00:36.884Z,99304.72
2023-03-26T09:03:53.856Z,99319.78
2023-03-26T09:06:45.580Z,99328.81
2023-03-26T09:09:51.640Z,99328.81
2023-03-26T09:12:52.017Z,99341.19
2023-03-26T09:15:36.810Z,99267.38
2023-03-26T09:18:47.851Z,99335.47
2023-03-26T09:21:39.982Z,99348.53
2023-03-26T09:24:35.025Z,99345.03
2023-03-26T09:27:17.224Z,99356.56
2023-03-26T09:30:11.509Z,99355.06
2023-03-26T09:33:21.424Z,99356.72
2023-03-26T09:35:55.156Z,99359.56
2023-03-26T09:38:42.669Z,99365.59
2023-03-26T09:41:17.354Z,99366.59
2023-03-26T09:44:23.253Z,99377.66
2023-03-26T09:47:07.895Z,99385.00
2023-03-26T09:49:50.807Z,99387.69
2023-03-26T09:52:38.641Z,99396.69
2023-03-26T09:55:54.406Z,99398.41
2023-03-26T09:58:56.786Z,99397.53
2023-03-26T10:01:38.521Z,99322.03
2023-03-26T10:04:38.036Z,99399.53
2023-03-26T10:07:15.479Z,99391.34
2023-03-26T10:09:55.570Z,99395.72
2023-03-26T10:12:35.089Z,99396.69
2023-03-26T10:15:18.182Z,99403.75
2023-03-26T10:17:58.008Z,99400.06
2023-03-26T10:20:50.655Z,99405.41
2023-03-26T10:23:33.569Z,99400.06
2023-03-26T10:26:19.725Z,99315.66
2023-03-26T10:29:04.809Z,99410.75
2023-03-26T10:31:46.315Z,99410.75
2023-03-26T10:34:32.738Z,99412.44
2023-03-26T10:37:09.716Z,99421.16
2023-03-26T10:40:07.858Z,99421.16
2023-03-26T10:43:06.697Z,99408.78
2023-03-26T10:45:52.594Z,99417.84
2023-03-26T10:48:37.819Z,99410.09
2023-03-26T10:51:28.854Z,99428.88
2023-03-26T10:54:02.682Z,99436.22
2023-03-26T10:56:36.196Z,99431.19
2023-03-26T10:59:08.821Z,99432.84
2023-03-26T11:01:43.545Z,99441.91
2023-03-26T11:04:28.619Z,99331.38
2023-03-26T11:07:05.303Z,99439.38
2023-03-26T11:09:45.447Z,99383.63
2023-03-26T11:12:26.661Z,99457.44
2023-03-26T11:15:06.463Z,99451.59
2023-03-26T11:17:44.974Z,99467.34
2023-03-26T11:20:19.118Z,99456.63
2023-03-26T11:22:56.892Z,99467.34
2023-03-26T11:25:41.378Z,99361.28
2023-03-26T11:28:21.010Z,99462.31
2023-03-26T11:30:56.833Z,99466.47
2023-03-26T11:33:32.623Z,99470.16
2023-03-26T11:36:07.154Z,99474.69
2023-03-26T11:38:39.071Z,99478.03
2023-03-26T11:41:14.172Z,99474.69
2023-03-26T11:43:42.282Z,99480.88
2023-03-26T11:46:14.367Z,99485.38
2023-03-26T11:48:46.408Z,99497.75
2023-03-26T11:51:23.488Z,99499.78
2023-03-26T11:53:51.669Z,99501.44
2023-03-26T11:56:27.139Z,99498.09
2023-03-26T11:59:01.456Z,99498.75
2023-03-26T12:01:41.926Z,99501.44
2023-03-26T12:04:14.633Z,99506.78
2023-03-26T12:06:53.406Z,99508.47
2023-03-26T12:09:21.991Z,99512.16
2023-03-26T12:11:54.251Z,99501.41
2023-03-26T12:14:25.218Z,99519.50
2023-03-26T12:17:02.371Z,99529.22
2023-03-26T12:19:38.436Z,99392.47
2023-03-26T12:22:29.590Z,99530.19
2023-03-26T12:25:16.621Z,99527.34
2023-03-26T12:27:46.374Z,99375.19
2023-03-26T12:30:22.878Z,99535.38
2023-03-26T12:32:53.475Z,99546.09
2023-03-26T12:35:27.583Z,99544.28
2023-03-26T12:38:14.535Z,99538.22
2023-03-26T12:40:43.373Z,99540.59
2023-03-26T12:44:49.265Z,99516.59
2023-03-26T12:47:54.962Z,99551.28
2023-03-26T12:49:17.623Z,99551.28
2023-03-26T12:51:51.964Z,99554.97
2023-03-26T12:54:33.305Z,99396.34
2023-03-26T12:57:18.457Z,99557.66
2023-03-26T13:00:13.038Z,99564.00
2023-03-26T13:02:59.125Z,99575.53
2023-03-26T13:05:41.473Z,99571.03
2023-03-26T13:08:35.091Z,99478.09
2023-03-26T13:11:12.598Z,99580.06
2023-03-26T13:14:07.166Z,99577.41
2023-03-26T13:16:46.877Z,99586.25
2023-03-26T13:19:20.747Z,99590.78
2023-03-26T13:22:01.809Z,99596.94
2023-03-26T13:24:42.576Z,99601.50
2023-03-26T13:27:23.720Z,99601.50
2023-03-26T13:29:59.835Z,99610.50
2023-03-26T13:32:43.343Z,99512.69
2023-03-26T13:35:25.424Z,99605.16
2023-03-26T13:38:01.147Z,99601.50
2023-03-26T13:40:38.805Z,99607.66
2023-03-26T13:43:24.084Z,99613.53
2023-03-26T13:46:00.817Z,99618.91
2023-03-26T13:48:36.023Z,99618.91
2023-03-26T13:51:10.858Z,99627.09
2023-03-26T13:53:46.136Z,99625.25
2023-03-26T13:56:19.940Z,99627.94
2023-03-26T13:58:55.616Z,99649.34
2023-03-26T14:01:34.865Z,99630.63
2023-03-26T14:04:09.691Z,99562.81
2023-03-26T14:06:48.163Z,99469.50
2023-03-26T14:09:22.949Z,99633.59
2023-03-26T14:12:02.783Z,99647.66
2023-03-26T14:14:41.593Z,99651.34
2023-03-26T14:17:18.347Z,99649.34
2023-03-26T14:20:15.076Z,99643.31
2023-03-26T14:22:55.689Z,99631.50
2023-03-26T14:25:37.746Z,99655.69
2023-03-26T14:28:21.060Z,99564.06
2023-03-26T14:31:11.362Z,99623.16
2023-03-26T14:33:52.048Z,99656.00
2023-03-26T14:36:39.493Z,99648.97
2023-03-26T14:39:38.664Z,99655.03
2023-03-26T14:42:16.485Z,99658.69
2023-03-26T14:45:08.554Z,99658.69
2023-03-26T14:47:45.133Z,99665.88
2023-03-26T14:50:46.844Z,99675.59
2023-03-26T14:53:29.113Z,99673.91
2023-03-26T14:56:16.767Z,99678.41
2023-03-26T14:59:19.781Z,99673.91
2023-03-26T15:02:38.154Z,99682.91
2023-03-26T15:05:41.649Z,99687.47
2023-03-26T15:08:42.640Z,99691.13
2023-03-26T15:11:26.040Z,99698.47
2023-03-26T15:14:05.236Z,99684.25
2023-03-26T15:17:08.265Z,99691.13
2023-03-26T15:20:11.782Z,99692.13
2023-03-26T15:23:19.060Z,99694.78
2023-03-26T15:26:21.405Z,99700.16
2023-03-26T15:29:05.166Z,99704.50
2023-03-26T15:32:04.684Z,99707.16
2023-03-26T15:35:15.284Z,99723.22
2023-03-26T15:38:24.638Z,99726.91
2023-03-26T15:41:01.997Z,99714.53
2023-03-26T15:44:24.376Z,99722.25
2023-03-26T15:47:12.842Z,99731.09
2023-03-26T15:49:43.422Z,99733.94
2023-03-26T15:52:24.764Z,99735.63
2023-03-26T15:55:02.765Z,99730.28
2023-03-26T15:57:34.580Z,99735.00
2023-03-26T16:00:30.934Z,99736.69
2023-03-26T16:03:17.540Z,99738.03
2023-03-26T16:06:14.258Z,99754.09
2023-03-26T16:08:53.339Z,99746.22
2023-03-26T16:12:00.117Z,99750.44
2023-03-26T16:14:44.666Z,99742.09
2023-03-26T16:17:17.752Z,99751.81
2023-03-26T16:20:00.012Z,99579.44
2023-03-26T16:22:43.703Z,99761.16
2023-03-26T16:25:30.863Z,99764.81
2023-03-26T16:28:28.910Z,99760.63
2023-03-26T16:31:37.701Z,99770.47
2023-03-26T16:34:30.213Z,99769.75
2023-03-26T16:37:00.853Z,99698.31
2023-03-26T16:39:43.735Z,99797.56
2023-03-26T16:42:37.184Z,99790.53
2023-03-26T16:45:19.663Z,99798.41
2023-03-26T16:48:01.111Z,99788.31
2023-03-26T16:50:42.692Z,99801.25
2023-03-26T16:53:29.968Z,99805.59
2023-03-26T16:56:04.443Z,99628.78
2023-03-26T16:58:40.227Z,99640.53
2023-03-26T17:01:11.899Z,99811.94
2023-03-26T17:03:51.139Z,99726.19
2023-03-26T17:06:34.700Z,99817.31
2023-03-26T17:09:16.028Z,99809.28
2023-03-26T17:11:57.923Z,99816.28
2023-03-26T17:14:49.012Z,99818.97
2023-03-26T17:17:37.575Z,99818.97
2023-03-26T17:20:17.544Z,99826.03
2023-03-26T17:22:54.154Z,99829.69
2023-03-26T17:25:33.316Z,99828.00
2023-03-26T17:28:16.767Z,99734.81
2023-03-26T17:31:09.747Z,99665.88
2023-03-26T17:33:39.911Z,99688.25
2023-03-26T17:36:30.712Z,99842.41
2023-03-26T17:39:02.964Z,99837.03
2023-03-26T17:41:51.821Z,99848.56
2023-03-26T17:44:38.446Z,99849.72
2023-03-26T17:47:14.145Z,99853.09
2023-03-26T17:49:44.741Z,99853.94
2023-03-26T17:52:21.286Z,99854.78
2023-03-26T17:54:51.497Z,99856.44
2023-03-26T17:57:24.756Z,99867.16
2023-03-26T17:59:58.600Z,99852.78
2023-03-26T18:02:36.229Z,99743.00
2023-03-26T18:05:09.456Z,99785.03
2023-03-26T18:08:21.833Z,99799.91
2023-03-26T18:11:19.625Z,99876.19
2023-03-26T18:14:29.221Z,99878.88
2023-03-26T18:16:59.909Z,99874.53
2023-03-26T18:19:29.302Z,99879.03
2023-03-26T18:22:00.002Z,99875.34
2023-03-26T18:24:32.646Z,99890.59
2023-03-26T18:27:06.297Z,99885.22
2023-03-26T18:29:36.602Z,99892.25
2023-03-26T18:32:22.188Z,99893.09
2023-03-26T18:34:57.075Z,99818.22
2023-03-26T18:37:28.143Z,99881.53
2023-03-26T18:40:11.299Z,99886.91
2023-03-26T18:42:41.554Z,99888.72
2023-03-26T18:45:17.711Z,99888.88
2023-03-26T18:47:47.783Z,99897.75
2023-03-26T18:50:20.001Z,99900.28
2023-03-26T18:52:48.223Z,99904.94
2023-03-26T18:55:17.938Z,99909.31
2023-03-26T18:57:46.340Z,99903.97
2023-03-26T19:00:20.831Z,99902.97
2023-03-26T19:02:52.556Z,99904.63
2023-03-26T19:05:21.422Z,99899.28
2023-03-26T19:07:52.426Z,99896.75
2023-03-26T19:10:22.384Z,99898.63
2023-03-26T19:12:57.458Z,99906.66
2023-03-26T19:15:28.506Z,99906.66
2023-03-26T19:18:03.924Z,99902.22
2023-03-26T19:20:39.189Z,99906.66
2023-03-26T19:23:09.856Z,99908.63
2023-03-26T19:25:42.337Z,99910.28
2023-03-26T19:28:18.349Z,99913.97
2023-03-26T19:30:46.763Z,99912.31
2023-03-26T19:33:18.500Z,99919.31
2023-03-26T19:35:48.736Z,99919.31
2023-03-26T19:38:26.351Z,99915.66
2023-03-26T19:40:57.803Z,99920.19
2023-03-26T19:43:27.049Z,99922.00
2023-03-26T19:46:00.447Z,99912.59
2023-03-26T19:48:46.197Z,99923.00
2023-03-26T19:51:21.498Z,99891.03
2023-03-26T19:53:54.667Z,99923.00
2023-03-26T19:56:24.605Z,99924.69
2023-03-26T19:58:52.869Z,99924.69
2023-03-26T20:01:23.948Z,99931.03
2023-03-26T20:03:55.943Z,99927.34
2023-03-26T20:06:33.971Z,99845.88
2023-03-26T20:09:06.500Z,99930.03
2023-03-26T20:11:38.876Z,99925.59
2023-03-26T20:14:13.455Z,99935.38
2023-03-26T20:16:43.857Z,99937.06
2023-03-26T20:19:14.187Z,99945.09
2023-03-26T20:21:42.745Z,99846.19
2023-03-26T20:24:14.773Z,99933.72
2023-03-26T20:26:44.599Z,99937.75
2023-03-26T20:29:13.067Z,99937.22
2023-03-26T20:31:42.567Z,99933.41
2023-03-26T20:34:17.389Z,99944.13
2023-03-26T20:36:46.383Z,99945.09
2023-03-26T20:39:15.046Z,99939.91
2023-03-26T20:41:46.722Z,99946.94
2023-03-26T20:44:17.768Z,99948.38
2023-03-26T20:46:48.495Z,99948.63
2023-03-26T20:49:18.119Z,99949.47
2023-03-26T20:51:47.078Z,99947.78
2023-03-26T20:54:21.589Z,99937.06
2023-03-26T20:56:51.812Z,99950.44
2023-03-26T20:59:22.338Z,99947.78
2023-03-26T21:01:51.790Z,99936.25
2023-03-26T21:04:21.113Z,99953.13
2023-03-26T21:06:50.142Z,99951.44
2023-03-26T21:09:23.899Z,99949.78
2023-03-26T21:12:02.850Z,99949.78
2023-03-26T21:14:34.516Z,99949.78
2023-03-26T21:17:03.109Z,99952.44
2023-03-26T21:19:31.935Z,99943.03
2023-03-26T21:22:09.227Z,99951.44
2023-03-26T21:24:55.382Z,99953.44
2023-03-26T21:27:31.045Z,99946.94
2023-03-26T21:30:00.150Z,99953.28
2023-03-26T21:32:28.956Z,99875.97
2023-03-26T21:34:59.490Z,99963.84
2023-03-26T21:37:28.532Z,99958.78
2023-03-26T21:39:57.343Z,99965.84
2023-03-26T21:42:29.515Z,99955.13
2023-03-26T21:44:58.128Z,99957.81
2023-03-26T21:47:27.147Z,99966.66
2023-03-26T21:49:55.895Z,99971.19
2023-03-26T21:52:25.399Z,99971.19
2023-03-26T21:54:54.302Z,99969.50
2023-03-26T21:57:42.497Z,99978.22
2023-03-26T22:00:15.625Z,99972.88
2023-03-26T22:02:58.253Z,99983.56
2023-03-26T22:05:33.704Z,99981.91
2023-03-26T22:08:03.753Z,99984.72
2023-03-26T22:10:33.014Z,99836.00
2023-03-26T22:13:02.458Z,99987.25
2023-03-26T22:15:31.399Z,99983.88
2023-03-26T22:18:02.193Z,99992.59
2023-03-26T22:20:30.676Z,99995.28
2023-03-26T22:22:59.761Z,99992.91
2023-03-26T22:25:27.894Z,100002.63
2023-03-26T22:27:57.508Z,100001.59
2023-03-26T22:30:27.322Z,100006.97
2023-03-26T22:32:55.840Z,100004.28
2023-03-26T22:35:24.335Z,100009.63
2023-03-26T22:37:53.021Z,100014.03
2023-03-26T22:40:29.329Z,100003.31
2023-03-26T22:42:57.429Z,100008.66
2023-03-26T22:45:28.049Z,100014.03
2023-03-26T22:48:03.834Z,100015.00
2023-03-26T22:50:32.938Z,100013.31
2023-03-26T22:53:01.148Z,100017.97
2023-03-26T22:55:29.732Z,100015.00
2023-03-26T22:57:58.214Z,100021.34
2023-03-26T23:00:27.860Z,100016.84
2023-03-26T23:03:00.581Z,100023.88
2023-03-26T23:05:29.460Z,100028.38
2023-03-26T23:07:58.384Z,100016.69
2023-03-26T23:10:26.525Z,100020.50
2023-03-26T23:12:55.054Z,100021.34
2023-03-26T23:15:25.952Z,99916.34
2023-03-26T23:17:55.467Z,100029.22
2023-03-26T23:20:23.703Z,100036.41
2023-03-26T23:22:52.562Z,100032.06
2023-03-26T23:25:21.112Z,100026.69
2023-03-26T23:27:50.790Z,100028.38
2023-03-26T23:30:19.364Z,100028.38
2023-03-26T23:32:47.814Z,100047.13
2023-03-26T23:35:17.500Z,100048.97
2023-03-26T23:37:45.559Z,100055.16
2023-03-26T23:40:14.354Z,100051.78
2023-03-26T23:42:42.577Z,100054.31
2023-03-26T23:45:12.399Z,100063.19
2023-03-26T23:47:42.416Z,100066.72
2023-03-26T23:50:12.063Z,100076.56
2023-03-26T23:52:41.749Z,100080.25
2023-03-26T23:55:10.447Z,100084.59
2023-03-26T23:57:38.698Z,100074.88
